Time;durP1;ratioP1;P1;durP2;ratioP2;P2;SDS_P1;SDS_P2;PMS_P1;PMS_P2;Temp;Humidity;BMP_temperature;BMP_pressure;BME280_temperature;BME280_humidity;BME280_pressure;Samples;Min_cycle;Max_cycle;Signal;HPM_P1;HPM_P2
2022/11/20 00:00:49;;;;;;;34.50;29.52;;;-7.00;99.90;;;;;;4973784;28;20053;-79
2022/11/20 00:03:19;;;;;;;36.08;29.88;;;-7.00;99.90;;;;;;4980836;28;20054;-78
2022/11/20 00:05:46;;;;;;;37.25;33.05;;;-7.00;99.90;;;;;;4961940;28;20050;-76
2022/11/20 00:08:12;;;;;;;45.33;34.38;;;-7.10;99.90;;;;;;4979349;28;20077;-79
2022/11/20 00:10:40;;;;;;;41.95;34.10;;;-7.10;99.90;;;;;;4975854;28;20046;-78
2022/11/20 00:13:07;;;;;;;46.95;35.78;;;-7.10;99.90;;;;;;4977866;28;20056;-79
2022/11/20 00:15:34;;;;;;;44.53;35.40;;;-7.20;99.90;;;;;;4982627;28;20049;-77
2022/11/20 00:18:00;;;;;;;46.22;35.67;;;-7.20;99.90;;;;;;4969332;28;20051;-76
2022/11/20 00:20:27;;;;;;;43.95;35.92;;;-7.20;99.90;;;;;;4974827;28;20049;-77
2022/11/20 00:22:54;;;;;;;49.42;36.70;;;-7.30;99.90;;;;;;4964551;28;20045;-77
2022/11/20 00:25:20;;;;;;;44.63;34.97;;;-7.20;99.90;;;;;;4981400;28;20141;-76
2022/11/20 00:27:47;;;;;;;43.85;35.17;;;-7.20;99.90;;;;;;4977361;28;20459;-78
2022/11/20 00:30:14;;;;;;;39.90;33.42;;;-7.10;99.90;;;;;;4979775;28;20134;-76
2022/11/20 00:32:41;;;;;;;42.22;33.83;;;-7.00;99.90;;;;;;4993323;28;20092;-75
2022/11/20 00:35:07;;;;;;;46.53;35.33;;;-7.10;99.90;;;;;;4979115;28;20045;-78
2022/11/20 00:37:34;;;;;;;42.30;35.58;;;-7.10;99.90;;;;;;4976320;28;20141;-75
2022/11/20 00:40:01;;;;;;;41.47;31.77;;;-7.10;99.90;;;;;;4986877;28;20038;-77
2022/11/20 00:42:28;;;;;;;41.53;31.50;;;-6.90;99.90;;;;;;4982838;28;20038;-79
2022/11/20 00:44:54;;;;;;;39.00;29.25;;;-6.90;99.90;;;;;;4998001;28;20052;-76
2022/11/20 00:47:21;;;;;;;39.78;29.27;;;-6.70;99.90;;;;;;4976418;28;20034;-76
2022/11/20 00:49:48;;;;;;;32.25;25.52;;;-6.80;99.90;;;;;;4965454;28;20053;-76
2022/11/20 00:52:14;;;;;;;46.38;31.58;;;-6.70;99.90;;;;;;4960195;28;20041;-79
2022/11/20 00:54:41;;;;;;;41.58;31.63;;;-6.80;99.90;;;;;;4970365;28;20046;-76
2022/11/20 00:57:08;;;;;;;39.80;30.52;;;-6.90;99.90;;;;;;4972065;28;20052;-78
2022/11/20 00:59:34;;;;;;;35.70;27.20;;;-6.90;99.90;;;;;;4980940;28;20073;-77
2022/11/20 01:02:01;;;;;;;36.58;28.40;;;-6.90;99.90;;;;;;4971814;28;20049;-77
2022/11/20 01:04:27;;;;;;;43.30;26.33;;;-6.90;99.90;;;;;;4975136;28;20046;-78
2022/11/20 01:06:54;;;;;;;35.67;26.50;;;-7.00;99.90;;;;;;4972135;28;20039;-78
2022/11/20 01:09:21;;;;;;;34.10;28.33;;;-7.00;99.90;;;;;;4973206;28;20041;-78
2022/11/20 01:11:48;;;;;;;30.67;27.20;;;-6.90;99.90;;;;;;4983177;28;20089;-77
2022/11/20 01:14:18;;;;;;;35.97;28.67;;;-7.20;99.90;;;;;;4978405;28;20431;-78
2022/11/20 01:16:48;;;;;;;39.45;31.13;;;-7.30;99.90;;;;;;4982627;28;20050;-76
2022/11/20 01:19:18;;;;;;;46.55;34.28;;;-7.30;99.90;;;;;;4978573;28;20052;-76
2022/11/20 01:21:49;;;;;;;47.33;34.75;;;-7.40;99.90;;;;;;4981517;28;20109;-78
2022/11/20 01:24:17;;;;;;;44.33;35.17;;;-7.50;99.90;;;;;;4962611;28;20046;-77
2022/11/20 01:26:46;;;;;;;41.05;33.45;;;-7.60;99.90;;;;;;4964355;28;20042;-77
2022/11/20 01:29:17;;;;;;;36.45;32.17;;;-7.50;99.90;;;;;;4987501;28;20409;-77
2022/11/20 01:31:44;;;;;;;43.00;33.38;;;-7.60;99.90;;;;;;4966350;28;20746;-77
2022/11/20 01:34:17;;;;;;;42.25;33.45;;;-7.50;99.90;;;;;;4996079;28;20172;-76
2022/11/20 01:36:45;;;;;;;38.53;32.45;;;-7.40;99.90;;;;;;4973192;28;20052;-77
2022/11/20 01:39:15;;;;;;;40.85;33.00;;;-7.50;99.90;;;;;;4991693;28;20077;-77
2022/11/20 01:44:52;;;;;;;33.90;29.40;;;-7.40;99.90;;;;;;4974460;28;20415;-76
2022/11/20 01:47:42;;;;;;;34.60;29.70;;;-7.30;99.90;;;;;;4983635;28;20061;-78
2022/11/20 01:50:19;;;;;;;36.22;28.48;;;-7.30;99.90;;;;;;4978253;28;20132;-78
2022/11/20 01:52:54;;;;;;;30.00;26.90;;;-7.30;99.90;;;;;;4982200;28;20528;-75
2022/11/20 01:55:28;;;;;;;29.65;26.77;;;-7.10;99.90;;;;;;4974626;28;20053;-76
2022/11/20 01:57:55;;;;;;;29.15;26.00;;;-7.30;99.90;;;;;;4969494;28;20057;-77
2022/11/20 02:00:22;;;;;;;31.52;27.73;;;-7.20;99.90;;;;;;4974995;28;20038;-77
2022/11/20 02:02:58;;;;;;;31.75;28.20;;;-7.40;99.90;;;;;;4992721;28;20458;-76
2022/11/20 02:05:49;;;;;;;37.65;29.65;;;-7.40;99.90;;;;;;4970170;28;20038;-77
2022/11/20 02:08:18;;;;;;;44.05;33.63;;;-7.40;99.90;;;;;;4990361;28;20046;-77
2022/11/20 02:10:45;;;;;;;42.85;33.50;;;-7.50;99.90;;;;;;4974466;28;20061;-76
2022/11/20 02:15:57;;;;;;;29.98;26.88;;;-7.50;99.90;;;;;;5002499;28;20324;-75
2022/11/20 02:18:24;;;;;;;39.70;31.23;;;-7.50;99.90;;;;;;4966971;28;20045;-75
2022/11/20 02:20:58;;;;;;;37.38;29.83;;;-7.40;99.90;;;;;;4983720;28;20214;-74
2022/11/20 02:23:48;;;;;;;;;;;-7.50;99.90;;;;;;5003450;28;20045;-74
2022/11/20 02:26:16;;;;;;;30.83;26.23;;;-7.50;99.90;;;;;;4962231;28;20101;-74
2022/11/20 02:28:43;;;;;;;30.13;26.90;;;-7.40;99.90;;;;;;4988982;28;20041;-74
2022/11/20 02:31:09;;;;;;;30.77;27.40;;;-7.60;99.90;;;;;;4970009;28;20195;-72
2022/11/20 02:33:36;;;;;;;27.15;23.65;;;-7.60;99.90;;;;;;5004256;28;20041;-72
2022/11/20 02:36:03;;;;;;;26.67;24.08;;;-7.50;99.90;;;;;;4979120;28;20046;-73
2022/11/20 02:38:30;;;;;;;29.63;24.88;;;-7.50;99.90;;;;;;4971517;28;20490;-72
2022/11/20 02:40:57;;;;;;;31.58;25.40;;;-7.60;99.90;;;;;;4972479;28;20046;-73
2022/11/20 02:43:23;;;;;;;32.13;25.58;;;-7.60;99.90;;;;;;4990528;28;20049;-73
2022/11/20 02:45:50;;;;;;;28.08;25.25;;;-7.60;99.90;;;;;;4998887;28;20513;-73
2022/11/20 02:48:17;;;;;;;31.48;26.30;;;-7.60;99.90;;;;;;4979417;28;20355;-73
2022/11/20 02:50:43;;;;;;;34.25;27.08;;;-7.60;99.90;;;;;;4996216;28;20617;-73
2022/11/20 02:53:10;;;;;;;32.10;27.45;;;-7.60;99.90;;;;;;4991930;28;20120;-73
2022/11/20 02:55:37;;;;;;;31.02;25.85;;;-7.70;99.90;;;;;;4984449;28;20117;-73
2022/11/20 02:58:04;;;;;;;31.10;27.80;;;-7.70;99.90;;;;;;4977953;28;20049;-73
2022/11/20 03:00:31;;;;;;;35.65;29.40;;;-7.80;99.90;;;;;;4983619;28;20056;-73
2022/11/20 03:02:58;;;;;;;31.85;28.50;;;-7.80;99.90;;;;;;4975434;28;20132;-73
2022/11/20 03:05:25;;;;;;;34.10;29.15;;;-7.90;99.90;;;;;;4981598;28;20044;-73
2022/11/20 03:07:52;;;;;;;31.13;28.05;;;-7.90;99.90;;;;;;4981679;28;20065;-73
2022/11/20 03:10:18;;;;;;;29.55;26.63;;;-8.00;99.90;;;;;;4967245;28;20049;-72
2022/11/20 03:12:45;;;;;;;30.63;27.52;;;-8.00;99.90;;;;;;4979396;28;20407;-72
2022/11/20 03:15:12;;;;;;;36.10;30.52;;;-8.00;99.90;;;;;;4975459;28;20665;-74
2022/11/20 03:17:39;;;;;;;34.15;29.75;;;-8.00;99.90;;;;;;4985601;28;20047;-74
2022/11/20 03:20:06;;;;;;;34.45;30.52;;;-7.80;99.90;;;;;;4974678;28;20045;-74
2022/11/20 03:22:33;;;;;;;35.75;31.65;;;-7.80;99.90;;;;;;4981090;28;20045;-73
2022/11/20 03:24:59;;;;;;;41.00;32.05;;;-7.70;99.90;;;;;;4975271;28;20076;-74
2022/11/20 03:27:26;;;;;;;37.17;31.30;;;-7.80;99.90;;;;;;4976874;28;20341;-73
2022/11/20 03:29:53;;;;;;;36.97;31.30;;;-7.90;99.90;;;;;;4975685;28;20466;-74
2022/11/20 03:32:19;;;;;;;35.20;29.15;;;-8.00;99.90;;;;;;4974050;28;20566;-73
2022/11/20 03:34:46;;;;;;;33.38;30.02;;;-8.10;99.90;;;;;;4975282;28;20046;-73
2022/11/20 03:37:12;;;;;;;35.45;30.38;;;-8.20;99.90;;;;;;4987403;28;20604;-74
2022/11/20 03:39:39;;;;;;;33.67;30.05;;;-8.20;99.90;;;;;;4998121;28;20217;-73
2022/11/20 03:42:44;;;;;;;37.08;31.17;;;-8.20;99.90;;;;;;4960074;28;20345;-73
2022/11/20 03:44:53;;;;;;;38.63;32.72;;;-8.20;99.90;;;;;;4982387;28;20064;-74
2022/11/20 03:47:19;;;;;;;39.15;32.17;;;-8.10;99.90;;;;;;4978136;28;20041;-73
2022/11/20 03:49:46;;;;;;;35.22;31.38;;;-8.00;99.90;;;;;;4972344;28;20050;-73
2022/11/20 03:52:13;;;;;;;40.20;30.75;;;-7.90;99.90;;;;;;4987063;28;20163;-73
2022/11/20 03:54:40;;;;;;;38.20;31.55;;;-7.70;99.90;;;;;;4978213;28;20044;-73
2022/11/20 03:57:06;;;;;;;41.63;31.25;;;-7.80;99.90;;;;;;4984672;28;20061;-73
2022/11/20 03:59:33;;;;;;;37.92;30.27;;;-7.70;99.90;;;;;;4996574;28;20048;-74
2022/11/20 04:02:00;;;;;;;41.58;30.05;;;-7.60;99.90;;;;;;4952714;28;20375;-72
2022/11/20 04:04:27;;;;;;;37.83;30.08;;;-7.70;99.90;;;;;;4972704;28;20489;-73
2022/11/20 04:06:53;;;;;;;34.63;29.02;;;-7.70;99.90;;;;;;4998953;28;20037;-73
2022/11/20 04:09:20;;;;;;;33.00;28.70;;;-7.70;99.90;;;;;;4970906;28;20058;-73
2022/11/20 04:11:47;;;;;;;37.00;27.55;;;-7.80;99.90;;;;;;4963897;28;20038;-72
2022/11/20 04:14:15;;;;;;;33.25;28.55;;;-7.70;99.90;;;;;;4984367;28;20049;-73
2022/11/20 04:16:43;;;;;;;32.70;28.67;;;-7.80;99.90;;;;;;4997331;28;20037;-73
2022/11/20 04:19:13;;;;;;;41.47;29.55;;;-8.00;99.90;;;;;;4991554;28;20045;-73
2022/11/20 04:21:40;;;;;;;38.25;29.52;;;-8.00;99.90;;;;;;4983540;28;20698;-73
2022/11/20 04:24:07;;;;;;;38.30;29.92;;;-8.00;99.90;;;;;;4990080;28;20041;-73
2022/11/20 04:26:34;;;;;;;36.15;29.10;;;-7.80;99.90;;;;;;4965848;28;20496;-73
2022/11/20 04:29:01;;;;;;;34.38;29.15;;;-7.90;99.90;;;;;;4997429;28;20255;-73
2022/11/20 04:31:30;;;;;;;33.25;29.70;;;-8.10;99.90;;;;;;4991066;28;20521;-73
2022/11/20 04:34:02;;;;;;;35.83;29.80;;;-8.20;99.90;;;;;;4996261;28;20050;-73
2022/11/20 04:36:30;;;;;;;36.70;29.85;;;-8.30;99.90;;;;;;4969730;28;20498;-73
2022/11/20 04:39:03;;;;;;;36.35;30.27;;;-8.30;99.90;;;;;;4995009;28;20045;-73
2022/11/20 04:41:32;;;;;;;37.38;31.30;;;-8.40;99.90;;;;;;4970427;28;20135;-73
2022/11/20 04:44:02;;;;;;;40.13;33.35;;;-8.40;99.90;;;;;;4998131;28;20069;-73
2022/11/20 04:46:32;;;;;;;35.30;31.50;;;-8.40;99.90;;;;;;4977505;28;20516;-72
2022/11/20 04:48:59;;;;;;;33.55;30.05;;;-8.50;99.90;;;;;;4975417;28;20359;-73
2022/11/20 04:51:26;;;;;;;36.30;31.45;;;-8.50;99.90;;;;;;4971158;28;20054;-73
2022/11/20 04:53:53;;;;;;;34.80;31.10;;;-8.50;99.90;;;;;;4997210;28;20360;-72
2022/11/20 04:56:20;;;;;;;36.47;31.33;;;-8.60;99.90;;;;;;4970292;28;20134;-72
2022/11/20 04:58:47;;;;;;;38.85;31.33;;;-8.60;99.90;;;;;;4995626;28;20387;-72
2022/11/20 05:01:20;;;;;;;41.35;31.92;;;-8.60;99.90;;;;;;4984183;28;20426;-72
2022/11/20 05:03:47;;;;;;;39.33;32.05;;;-8.50;99.90;;;;;;4966219;28;20068;-72
2022/11/20 05:06:17;;;;;;;43.17;32.83;;;-8.30;99.90;;;;;;4964992;28;20298;-72
2022/11/20 05:08:44;;;;;;;40.13;30.38;;;-8.30;99.90;;;;;;4968012;28;20080;-73
2022/11/20 05:11:16;;;;;;;40.85;32.80;;;-8.40;99.90;;;;;;4965911;28;20265;-73
2022/11/20 05:13:43;;;;;;;38.20;32.95;;;-8.40;99.90;;;;;;4982713;28;20052;-72
2022/11/20 05:16:15;;;;;;;37.20;33.30;;;-8.50;99.90;;;;;;4967509;28;20089;-72
2022/11/20 05:18:43;;;;;;;38.47;33.50;;;-8.70;99.90;;;;;;4986837;28;20072;-73
2022/11/20 05:21:10;;;;;;;39.90;33.80;;;-8.70;99.90;;;;;;4989700;28;20529;-72
2022/11/20 05:23:38;;;;;;;38.38;34.58;;;-8.70;99.90;;;;;;4971542;28;20049;-73
2022/11/20 05:26:06;;;;;;;40.58;32.13;;;-8.60;99.90;;;;;;4987691;28;20390;-71
2022/11/20 05:28:34;;;;;;;36.08;31.40;;;-8.30;99.90;;;;;;5008881;28;20204;-72
2022/11/20 05:31:13;;;;;;;37.55;32.85;;;-8.40;99.90;;;;;;4959184;28;20185;-71
2022/11/20 05:33:42;;;;;;;40.33;34.20;;;-8.50;99.90;;;;;;4989073;28;20123;-71
2022/11/20 05:36:10;;;;;;;39.00;32.45;;;-8.40;99.90;;;;;;4976668;28;20034;-72
2022/11/20 05:38:37;;;;;;;40.60;33.55;;;-8.50;99.90;;;;;;4984787;28;20425;-72
2022/11/20 05:41:15;;;;;;;43.05;32.95;;;-8.50;99.90;;;;;;4977704;28;20487;-71
2022/11/20 05:43:44;;;;;;;39.20;33.25;;;-8.50;99.90;;;;;;5004730;28;20107;-71
2022/11/20 05:46:13;;;;;;;43.97;33.40;;;-8.50;99.90;;;;;;4978797;28;20217;-71
2022/11/20 05:48:41;;;;;;;36.13;32.47;;;-8.30;99.90;;;;;;5012782;28;20068;-72
2022/11/20 05:51:10;;;;;;;36.30;32.33;;;-8.50;99.90;;;;;;4966718;28;20046;-72
2022/11/20 05:53:38;;;;;;;34.97;31.10;;;-8.60;99.90;;;;;;4979381;28;20060;-72
2022/11/20 05:56:15;;;;;;;38.22;31.52;;;-8.70;99.90;;;;;;4957228;28;20156;-73
2022/11/20 05:58:41;;;;;;;38.15;31.77;;;-8.50;99.90;;;;;;4975264;28;20052;-73
2022/11/20 06:01:21;;;;;;;34.30;30.75;;;-8.50;99.90;;;;;;4978693;28;20321;-73
2022/11/20 06:03:50;;;;;;;41.65;32.22;;;-8.40;99.90;;;;;;4987966;28;20057;-74
2022/11/20 06:06:18;;;;;;;38.33;31.75;;;-8.30;99.90;;;;;;4978266;28;20329;-74
2022/11/20 06:08:45;;;;;;;43.88;30.73;;;-8.20;99.90;;;;;;4967503;28;20042;-73
2022/11/20 06:11:13;;;;;;;41.22;32.22;;;-8.30;99.90;;;;;;4984997;28;20052;-73
2022/11/20 06:13:41;;;;;;;35.90;30.52;;;-8.30;99.90;;;;;;4981709;28;20037;-74
2022/11/20 06:16:10;;;;;;;40.25;30.52;;;-8.20;99.90;;;;;;4972276;28;20298;-74
2022/11/20 06:18:37;;;;;;;39.80;30.83;;;-8.10;99.90;;;;;;4971022;28;20272;-73
2022/11/20 06:21:16;;;;;;;40.70;30.27;;;-8.10;99.90;;;;;;4990358;28;20057;-74
2022/11/20 06:23:44;;;;;;;32.25;28.58;;;-8.30;99.90;;;;;;4968576;28;20221;-74
2022/11/20 06:26:15;;;;;;;33.58;29.20;;;-8.30;99.90;;;;;;4986170;28;20588;-73
2022/11/20 06:28:41;;;;;;;38.45;31.70;;;-8.30;99.90;;;;;;4965860;28;20048;-73
2022/11/20 06:31:11;;;;;;;39.67;33.30;;;-8.20;99.90;;;;;;4988357;28;20038;-73
2022/11/20 06:33:38;;;;;;;37.03;32.75;;;-8.00;99.90;;;;;;4994684;28;20041;-73
2022/11/20 06:36:05;;;;;;;39.88;32.35;;;-8.00;99.90;;;;;;4977768;28;20701;-73
2022/11/20 06:38:37;;;;;;;41.05;33.65;;;-8.00;99.90;;;;;;4970440;28;20506;-73
2022/11/20 06:41:06;;;;;;;37.75;32.00;;;-8.00;99.90;;;;;;4990806;28;20699;-73
2022/11/20 06:43:33;;;;;;;42.15;35.13;;;-8.00;99.90;;;;;;4990157;28;20325;-73
2022/11/20 06:46:00;;;;;;;48.75;35.85;;;-7.90;99.90;;;;;;4994217;28;20061;-73
2022/11/20 06:48:27;;;;;;;53.35;36.60;;;-7.90;99.90;;;;;;4970661;28;20056;-73
2022/11/20 06:50:55;;;;;;;46.70;36.85;;;-7.80;99.90;;;;;;4971762;28;20735;-72
2022/11/20 06:53:23;;;;;;;55.92;40.75;;;-7.90;99.90;;;;;;4986728;28;20073;-73
2022/11/20 06:55:50;;;;;;;56.03;41.45;;;-7.80;99.90;;;;;;4979843;28;20037;-72
2022/11/20 06:58:18;;;;;;;68.10;45.13;;;-7.70;99.90;;;;;;4974504;28;20060;-73
2022/11/20 07:00:44;;;;;;;74.00;46.88;;;-7.70;99.90;;;;;;4974318;28;20280;-73
2022/11/20 07:03:12;;;;;;;69.35;45.38;;;-7.80;99.90;;;;;;4976456;28;20041;-73
2022/11/20 07:05:40;;;;;;;56.38;41.10;;;-7.70;99.90;;;;;;4991584;28;20518;-72
2022/11/20 07:08:07;;;;;;;80.28;51.83;;;-7.50;99.90;;;;;;4971287;28;20517;-73
2022/11/20 07:10:34;;;;;;;61.20;43.03;;;-7.50;99.90;;;;;;4968156;28;20683;-73
2022/11/20 07:13:01;;;;;;;56.85;41.05;;;-7.50;99.90;;;;;;4970561;28;20268;-72
2022/11/20 07:15:28;;;;;;;47.58;39.28;;;-7.50;99.90;;;;;;4987294;28;20731;-73
2022/11/20 07:17:55;;;;;;;41.13;35.47;;;-7.70;99.90;;;;;;4972612;28;20280;-73
2022/11/20 07:20:22;;;;;;;53.58;36.10;;;-7.60;99.90;;;;;;4989786;28;20473;-72
2022/11/20 07:22:54;;;;;;;54.92;39.80;;;-7.70;99.90;;;;;;5000125;28;20045;-73
2022/11/20 07:25:22;;;;;;;51.00;40.30;;;-7.70;99.90;;;;;;4975546;28;20378;-73
2022/11/20 07:27:49;;;;;;;50.28;39.67;;;-7.50;99.90;;;;;;4977961;28;20454;-73
2022/11/20 07:30:16;;;;;;;61.30;46.03;;;-7.60;99.90;;;;;;4970802;28;20726;-72
2022/11/20 07:32:46;;;;;;;52.63;40.65;;;-7.50;99.90;;;;;;4978101;28;20395;-73
2022/11/20 07:35:13;;;;;;;47.97;38.60;;;-7.40;99.90;;;;;;4970920;28;20435;-73
2022/11/20 07:37:40;;;;;;;41.50;37.00;;;-7.20;99.90;;;;;;4989982;28;20132;-73
2022/11/20 07:40:07;;;;;;;41.22;36.75;;;-7.10;99.90;;;;;;4970733;28;20084;-72
2022/11/20 07:42:34;;;;;;;42.50;35.53;;;-7.10;99.90;;;;;;4991207;28;20223;-73
2022/11/20 07:45:01;;;;;;;47.47;38.47;;;-7.10;99.90;;;;;;4990063;28;20275;-73
2022/11/20 07:47:28;;;;;;;45.38;38.50;;;-6.90;99.90;;;;;;4992234;28;20056;-73
2022/11/20 07:49:55;;;;;;;53.45;41.65;;;-6.80;99.90;;;;;;4990102;28;20281;-73
2022/11/20 07:52:21;;;;;;;46.42;36.33;;;-6.70;99.90;;;;;;4984363;28;20100;-73
2022/11/20 07:54:48;;;;;;;43.70;35.47;;;-6.50;99.90;;;;;;5012371;22;20057;-71
2022/11/20 07:57:15;;;;;;;40.67;35.15;;;-6.30;99.90;;;;;;4992069;28;20042;-71
2022/11/20 07:59:41;;;;;;;46.95;40.92;;;-6.20;99.90;;;;;;4993898;28;20042;-70
2022/11/20 08:02:11;;;;;;;41.25;36.83;;;-6.10;99.90;;;;;;4974047;28;20050;-71
2022/11/20 08:04:37;;;;;;;69.03;38.83;;;-6.00;99.90;;;;;;5010658;28;20040;-71
2022/11/20 08:07:04;;;;;;;51.08;42.60;;;-5.90;99.90;;;;;;5009703;28;20265;-71
2022/11/20 08:09:30;;;;;;;43.72;38.15;;;-5.90;99.90;;;;;;5009042;28;20048;-71
2022/11/20 08:14:42;;;;;;;59.75;49.13;;;-5.60;99.90;;;;;;5011742;28;20044;-71
2022/11/20 08:17:09;;;;;;;68.80;53.45;;;-5.40;99.90;;;;;;5010407;28;20321;-71
2022/11/20 08:19:36;;;;;;;66.03;51.90;;;-5.40;99.90;;;;;;5005636;28;20060;-71
2022/11/20 08:22:02;;;;;;;72.32;58.42;;;-5.30;99.90;;;;;;5006879;28;20041;-71
2022/11/20 08:24:29;;;;;;;64.85;53.33;;;-5.10;99.90;;;;;;5009541;28;20403;-71
2022/11/20 08:26:59;;;;;;;67.00;55.92;;;-5.00;99.90;;;;;;5024935;28;20048;-71
2022/11/20 08:29:27;;;;;;;78.60;63.28;;;-4.80;99.90;;;;;;5005577;28;20491;-71
2022/11/20 08:31:53;;;;;;;89.53;69.03;;;-4.80;99.90;;;;;;5021522;28;20049;-71
2022/11/20 08:34:20;;;;;;;70.82;58.30;;;-4.70;99.90;;;;;;5011412;28;20050;-71
2022/11/20 08:36:47;;;;;;;72.07;58.13;;;-4.60;99.90;;;;;;5009148;28;20045;-71
2022/11/20 08:39:14;;;;;;;78.80;63.25;;;-4.40;99.90;;;;;;5008245;28;20044;-71
2022/11/20 08:41:41;;;;;;;73.43;61.13;;;-4.20;99.90;;;;;;5004946;28;20447;-72
2022/11/20 08:44:08;;;;;;;64.72;53.25;;;-4.40;99.90;;;;;;5007744;28;20044;-72
2022/11/20 08:46:40;;;;;;;55.63;48.17;;;-4.20;99.90;;;;;;5004372;28;20040;-71
2022/11/20 08:49:09;;;;;;;55.92;47.80;;;-4.00;99.90;;;;;;5034025;28;20131;-71
2022/11/20 08:51:37;;;;;;;58.83;51.60;;;-3.80;99.90;;;;;;5024475;28;20501;-71
2022/11/20 08:54:04;;;;;;;58.75;52.83;;;-3.70;99.90;;;;;;5020617;28;20034;-71
2022/11/20 08:56:31;;;;;;;55.67;48.45;;;-3.60;99.90;;;;;;5018503;28;20034;-71
2022/11/20 08:58:59;;;;;;;55.13;45.90;;;-3.50;99.90;;;;;;5007730;28;20049;-71
2022/11/20 09:01:46;;;;;;;52.80;46.92;;;-3.40;99.90;;;;;;5008400;28;20060;-72
2022/11/20 09:04:14;;;;;;;62.47;55.72;;;-3.40;99.90;;;;;;5013771;28;20057;-71
2022/11/20 09:06:41;;;;;;;58.67;49.50;;;-3.20;99.90;;;;;;5008212;28;20575;-72
2022/11/20 09:09:07;;;;;;;68.60;55.25;;;-3.10;99.90;;;;;;5022892;28;20045;-71
2022/11/20 09:11:35;;;;;;;83.22;64.85;;;-3.00;99.90;;;;;;4992017;28;20038;-72
2022/11/20 09:14:04;;;;;;;88.53;64.60;;;-2.80;99.90;;;;;;5007053;28;20358;-72
2022/11/20 09:16:30;;;;;;;92.97;70.07;;;-2.70;99.90;;;;;;5007672;28;20045;-72
2022/11/20 09:18:57;;;;;;;104.43;78.07;;;-2.60;99.90;;;;;;5009152;28;20053;-72
2022/11/20 09:21:44;;;;;;;102.85;79.32;;;-2.50;99.90;;;;;;5011861;28;20527;-72
2022/11/20 09:24:10;;;;;;;98.25;76.30;;;-2.40;99.90;;;;;;5008852;28;20060;-70
2022/11/20 09:26:37;;;;;;;84.07;65.10;;;-2.40;99.90;;;;;;5011198;28;20141;-70
2022/11/20 09:29:04;;;;;;;77.32;58.70;;;-2.30;99.90;;;;;;5005181;28;20042;-70
2022/11/20 09:31:30;;;;;;;81.18;56.60;;;-2.30;99.90;;;;;;5001837;28;20038;-73
2022/11/20 09:33:57;;;;;;;83.90;57.35;;;-2.30;99.90;;;;;;5008742;28;20042;-71
2022/11/20 09:36:23;;;;;;;80.05;54.70;;;-2.40;99.90;;;;;;5013453;28;20045;-72
2022/11/20 09:38:50;;;;;;;59.65;40.45;;;-2.50;99.90;;;;;;4993495;28;20093;-70
2022/11/20 09:41:38;;;;;;;54.35;35.58;;;-2.50;99.90;;;;;;5007959;28;20045;-71
2022/11/20 09:44:23;;;;;;;52.92;41.53;;;-2.30;99.90;;;;;;5010154;28;20053;-70
2022/11/20 09:47:01;;;;;;;46.80;34.20;;;-2.20;99.90;;;;;;5009373;28;20517;-70
2022/11/20 09:49:38;;;;;;;53.28;33.75;;;-2.20;99.90;;;;;;5009472;28;20043;-71
2022/11/20 09:52:19;;;;;;;44.40;32.58;;;-2.10;99.90;;;;;;5011778;28;20042;-70
2022/11/20 09:54:46;;;;;;;60.33;27.38;;;-2.10;99.90;;;;;;5012155;28;20045;-71
2022/11/20 09:57:23;;;;;;;62.17;30.27;;;-2.10;99.90;;;;;;5010918;28;20050;-71
2022/11/20 09:59:59;;;;;;;57.88;31.95;;;-2.20;99.90;;;;;;5012212;28;20045;-71
2022/11/20 10:02:39;;;;;;;49.15;27.52;;;-2.00;99.90;;;;;;5018932;28;20034;-70
2022/11/20 10:05:21;;;;;;;47.00;28.20;;;-2.00;99.90;;;;;;5006197;28;20052;-71
2022/11/20 10:08:21;;;;;;;45.83;27.92;;;-1.90;99.90;;;;;;5014374;28;20049;-70
2022/11/20 10:11:15;;;;;;;40.85;25.67;;;-1.60;99.90;;;;;;5009504;28;20064;-70
2022/11/20 10:13:49;;;;;;;43.03;29.90;;;-1.50;99.90;;;;;;5013807;28;20435;-70
2022/11/20 10:16:48;;;;;;;48.13;26.65;;;-1.40;99.90;;;;;;5012137;28;21177;-71
2022/11/20 10:19:43;;;;;;;45.40;27.70;;;-1.10;99.90;;;;;;4996545;28;20045;-73
2022/11/20 10:22:40;;;;;;;86.43;31.73;;;-1.00;99.90;;;;;;5010479;28;20293;-70
2022/11/20 10:25:21;;;;;;;53.72;31.70;;;-1.00;99.90;;;;;;5016599;28;20049;-71
2022/11/20 10:27:54;;;;;;;42.47;29.17;;;-0.70;99.90;;;;;;5029513;28;20041;-71
2022/11/20 10:30:24;;;;;;;48.25;29.80;;;-0.40;99.90;;;;;;5010831;28;20052;-71
2022/11/20 10:33:15;;;;;;;54.88;32.92;;;-0.30;99.90;;;;;;5013241;28;20050;-71
2022/11/20 10:36:02;;;;;;;59.67;35.10;;;-0.20;99.90;;;;;;5012982;28;20495;-71
2022/11/20 10:38:49;;;;;;;45.53;33.38;;;-0.50;99.90;;;;;;5014247;28;20057;-71
2022/11/20 10:41:25;;;;;;;66.38;33.65;;;-0.30;99.90;;;;;;5024936;28;20045;-71
2022/11/20 10:44:14;;;;;;;53.50;37.55;;;-0.10;99.90;;;;;;4997313;28;20061;-71
2022/11/20 10:46:44;;;;;;;49.80;36.13;;;0.00;99.90;;;;;;5007184;28;20568;-71
2022/11/20 10:49:20;;;;;;;55.50;38.05;;;-0.10;99.90;;;;;;5015595;28;20041;-71
2022/11/20 10:52:04;;;;;;;53.38;39.28;;;0.00;99.90;;;;;;5026002;28;20566;-71
2022/11/20 10:54:58;;;;;;;53.47;41.35;;;0.00;99.90;;;;;;5016654;28;20038;-71
2022/11/20 10:57:55;;;;;;;58.13;44.60;;;-0.10;99.90;;;;;;5011986;28;20056;-71
2022/11/20 11:00:22;;;;;;;58.40;45.03;;;0.20;99.90;;;;;;5014893;28;20052;-72
2022/11/20 11:02:53;;;;;;;56.42;45.83;;;0.30;99.90;;;;;;5005591;28;20044;-72
2022/11/20 11:05:25;;;;;;;51.40;41.50;;;0.70;99.90;;;;;;5008494;28;20048;-72
2022/11/20 11:07:57;;;;;;;49.50;41.47;;;1.10;99.90;;;;;;5030386;28;20049;-72
2022/11/20 11:10:42;;;;;;;48.42;43.20;;;1.20;99.90;;;;;;5007325;28;20064;-71
2022/11/20 11:13:23;;;;;;;45.97;41.03;;;1.40;99.90;;;;;;5026743;28;20041;-72
2022/11/20 11:15:50;;;;;;;46.25;41.85;;;1.50;99.90;;;;;;5018309;28;21151;-72
2022/11/20 11:18:25;;;;;;;48.17;43.17;;;1.40;99.90;;;;;;5010636;28;20563;-71
2022/11/20 11:20:53;;;;;;;48.28;43.22;;;1.70;99.90;;;;;;5032434;28;20037;-71
2022/11/20 11:23:31;;;;;;;49.75;44.10;;;1.60;99.90;;;;;;5008994;28;20041;-71
2022/11/20 11:26:00;;;;;;;49.20;43.95;;;1.60;99.90;;;;;;5008135;28;20051;-70
2022/11/20 11:28:27;;;;;;;52.55;46.47;;;1.60;99.90;;;;;;5004349;28;20038;-71
2022/11/20 11:30:55;;;;;;;48.15;43.13;;;1.70;99.90;;;;;;5010341;28;20038;-71
2022/11/20 11:33:33;;;;;;;51.33;45.97;;;1.80;99.90;;;;;;5011057;28;20352;-71
2022/11/20 11:36:04;;;;;;;53.83;45.97;;;1.90;99.90;;;;;;5010824;28;20049;-72
2022/11/20 11:38:40;;;;;;;47.38;42.55;;;2.00;99.90;;;;;;5011066;28;20140;-71
2022/11/20 11:41:12;;;;;;;48.50;42.70;;;1.90;99.90;;;;;;5006500;28;20646;-71
2022/11/20 11:46:24;;;;;;;;;;;2.10;99.90;;;;;;5010068;28;20408;-72
2022/11/20 11:49:11;;;;;;;46.10;41.22;;;2.10;99.90;;;;;;4995574;28;19927;-71
2022/11/20 11:51:58;;;;;;;47.72;42.53;;;2.40;99.90;;;;;;5009344;28;20041;-71
2022/11/20 11:54:47;;;;;;;45.15;40.35;;;2.30;99.90;;;;;;5007595;28;20038;-71
2022/11/20 11:57:23;;;;;;;48.72;43.47;;;2.40;99.90;;;;;;5014663;28;20052;-72
2022/11/20 11:59:59;;;;;;;49.28;44.40;;;2.60;99.90;;;;;;5008902;28;20045;-71
2022/11/20 12:02:32;;;;;;;44.25;39.80;;;2.60;99.90;;;;;;5016090;28;20049;-73
2022/11/20 12:05:13;;;;;;;44.20;39.85;;;2.50;99.90;;;;;;5006440;28;20084;-71
2022/11/20 12:08:04;;;;;;;44.25;39.70;;;2.50;99.90;;;;;;5005383;28;20046;-71
2022/11/20 12:11:28;;;;;;;51.30;46.58;;;2.60;99.90;;;;;;5006791;28;20500;-72
2022/11/20 12:14:04;;;;;;;48.15;43.55;;;2.60;99.90;;;;;;4991586;28;20343;-71
2022/11/20 12:16:35;;;;;;;49.78;45.22;;;2.60;99.90;;;;;;4990077;28;20050;-71
2022/11/20 12:19:06;;;;;;;49.88;45.10;;;2.70;99.90;;;;;;5004817;28;20049;-71
2022/11/20 12:21:52;;;;;;;47.85;43.45;;;2.60;99.90;;;;;;5003856;28;20388;-70
2022/11/20 12:24:35;;;;;;;49.78;45.08;;;2.40;99.90;;;;;;4993156;28;20045;-70
2022/11/20 12:27:34;;;;;;;51.00;45.97;;;2.40;99.90;;;;;;5002516;28;20129;-70
2022/11/20 12:30:07;;;;;;;63.83;56.72;;;2.30;99.90;;;;;;5003821;28;20049;-70
2022/11/20 12:32:43;;;;;;;51.80;47.25;;;2.30;99.90;;;;;;5010292;28;20526;-70
2022/11/20 12:35:18;;;;;;;50.15;45.65;;;2.20;99.90;;;;;;4999435;28;20132;-70
2022/11/20 12:38:26;;;;;;;50.83;46.22;;;2.20;99.90;;;;;;5007447;28;20049;-70
2022/11/20 12:41:04;;;;;;;50.55;46.13;;;2.30;99.90;;;;;;5011945;28;20072;-70
2022/11/20 12:46:47;;;;;;;52.35;47.67;;;2.40;99.90;;;;;;5005873;28;20041;-69
2022/11/20 12:49:29;;;;;;;56.10;50.95;;;2.40;99.90;;;;;;5006175;28;20060;-70
2022/11/20 12:52:26;;;;;;;58.35;52.83;;;2.40;99.90;;;;;;5010469;28;20522;-69
2022/11/20 12:55:20;;;;;;;53.08;48.72;;;2.50;99.90;;;;;;5005103;28;20508;-69
2022/11/20 12:57:56;;;;;;;45.95;42.15;;;2.40;99.90;;;;;;5010267;28;20056;-69
2022/11/20 13:00:24;;;;;;;48.30;43.80;;;2.40;99.90;;;;;;5012088;28;20622;-69
2022/11/20 13:03:27;;;;;;;52.33;47.95;;;2.30;99.90;;;;;;5013551;28;20037;-70